createdAt,value
2017-08-31T00:01:00.115Z,22.66
2017-08-31T00:03:27.760Z,22.63
2017-08-31T00:05:55.386Z,22.48
2017-08-31T00:08:23.023Z,22.36
2017-08-31T00:10:50.647Z,22.44
2017-08-31T00:13:18.287Z,22.52
2017-08-31T00:15:45.885Z,22.53
2017-08-31T00:18:13.547Z,22.60
2017-08-31T00:20:41.163Z,22.64
2017-08-31T00:23:08.783Z,22.50
2017-08-31T00:25:36.414Z,22.49
2017-08-31T00:28:04.081Z,22.49
2017-08-31T00:30:31.680Z,22.38
2017-08-31T00:32:59.290Z,22.33
2017-08-31T00:35:26.923Z,22.32
2017-08-31T00:37:54.527Z,22.29
2017-08-31T00:40:22.164Z,22.30
2017-08-31T00:42:49.765Z,22.24
2017-08-31T00:45:17.395Z,22.24
2017-08-31T00:47:44.994Z,22.26
2017-08-31T00:50:12.626Z,22.27
2017-08-31T00:52:40.203Z,22.20
2017-08-31T00:55:07.838Z,22.15
2017-08-31T00:57:35.436Z,22.11
2017-08-31T01:00:03.118Z,22.08
2017-08-31T01:02:30.702Z,21.97
2017-08-31T01:04:58.327Z,21.71
2017-08-31T01:07:25.922Z,21.37
2017-08-31T01:09:53.549Z,21.26
2017-08-31T01:12:21.152Z,21.13
2017-08-31T01:14:48.782Z,20.91
2017-08-31T01:17:16.378Z,20.82
2017-08-31T01:19:44.010Z,20.63
2017-08-31T01:22:11.609Z,20.66
2017-08-31T01:24:39.234Z,20.65
2017-08-31T01:27:06.843Z,20.55
2017-08-31T01:29:34.482Z,20.44
2017-08-31T01:32:02.078Z,20.45
2017-08-31T01:34:29.759Z,20.36
2017-08-31T01:36:57.347Z,20.27
2017-08-31T01:39:25.002Z,20.15
2017-08-31T01:41:52.599Z,20.00
2017-08-31T01:44:20.224Z,20.09
2017-08-31T01:46:47.806Z,20.05
2017-08-31T01:49:15.419Z,19.95
2017-08-31T01:51:43.006Z,19.88
2017-08-31T01:54:10.626Z,19.62
2017-08-31T01:56:38.237Z,19.59
2017-08-31T01:59:05.858Z,19.53
2017-08-31T02:01:33.461Z,19.46
2017-08-31T02:04:01.088Z,19.50
2017-08-31T02:06:28.694Z,19.47
2017-08-31T02:08:56.466Z,19.45
2017-08-31T02:11:24.058Z,19.34
2017-08-31T02:13:51.686Z,19.26
2017-08-31T02:16:19.354Z,19.31
2017-08-31T02:18:47.002Z,19.38
2017-08-31T02:21:14.592Z,19.32
2017-08-31T02:23:42.193Z,19.20
2017-08-31T02:26:09.814Z,19.16
2017-08-31T02:28:37.507Z,19.11
2017-08-31T02:31:05.127Z,19.06
2017-08-31T02:33:32.747Z,19.03
2017-08-31T02:36:00.415Z,18.97
2017-08-31T02:38:28.014Z,18.95
2017-08-31T02:40:55.637Z,19.03
2017-08-31T02:43:23.235Z,18.89
2017-08-31T02:45:50.863Z,18.92
2017-08-31T02:48:18.475Z,18.91
2017-08-31T02:50:46.192Z,18.86
2017-08-31T02:53:13.804Z,18.88
2017-08-31T02:55:41.435Z,18.71
2017-08-31T02:58:09.055Z,18.50
2017-08-31T03:00:36.685Z,18.50
2017-08-31T03:03:04.292Z,18.50
2017-08-31T03:05:31.958Z,18.47
2017-08-31T03:07:59.834Z,18.41
2017-08-31T03:10:27.466Z,18.33
2017-08-31T03:12:55.066Z,18.26
2017-08-31T03:15:22.714Z,18.12
2017-08-31T03:17:50.413Z,18.12
2017-08-31T03:20:18.066Z,18.07
2017-08-31T03:22:45.682Z,18.15
2017-08-31T03:25:13.282Z,18.12
2017-08-31T03:27:40.915Z,17.99
2017-08-31T03:30:08.559Z,18.03
2017-08-31T03:32:36.314Z,18.03
2017-08-31T03:35:03.910Z,18.01
2017-08-31T03:37:31.562Z,17.97
2017-08-31T03:39:59.168Z,17.63
2017-08-31T03:42:26.754Z,17.55
2017-08-31T03:44:54.416Z,17.56
2017-08-31T03:47:22.006Z,17.67
2017-08-31T03:49:49.652Z,17.73
2017-08-31T03:52:17.234Z,17.68
2017-08-31T03:54:44.880Z,17.70
2017-08-31T03:57:12.482Z,17.72
2017-08-31T03:59:40.143Z,17.67
2017-08-31T04:02:07.749Z,17.56
2017-08-31T04:04:35.404Z,17.48
2017-08-31T04:07:02.982Z,17.52
2017-08-31T04:09:30.667Z,17.53
2017-08-31T04:11:58.265Z,17.48
2017-08-31T04:14:25.887Z,17.44
2017-08-31T04:16:53.474Z,17.51
2017-08-31T04:19:21.175Z,17.59
2017-08-31T04:21:48.772Z,17.49
2017-08-31T04:24:16.354Z,17.49
2017-08-31T04:26:44.043Z,17.47
2017-08-31T04:29:11.642Z,17.43
2017-08-31T04:31:39.266Z,17.45
2017-08-31T04:34:06.950Z,17.52
2017-08-31T04:36:34.636Z,17.49
2017-08-31T04:39:02.231Z,17.46
2017-08-31T04:41:29.894Z,17.44
2017-08-31T04:43:57.484Z,17.31
2017-08-31T04:46:25.108Z,17.24
2017-08-31T04:48:52.697Z,17.17
2017-08-31T04:51:20.330Z,17.18
2017-08-31T04:53:47.994Z,17.23
2017-08-31T04:56:15.614Z,17.23
2017-08-31T04:58:43.214Z,17.13
2017-08-31T05:01:10.830Z,17.19
2017-08-31T05:03:38.419Z,17.14
2017-08-31T05:06:06.042Z,16.96
2017-08-31T05:08:33.644Z,16.93
2017-08-31T05:11:01.283Z,16.98
2017-08-31T05:13:28.886Z,17.00
2017-08-31T05:15:56.501Z,16.96
2017-08-31T05:18:24.098Z,16.97
2017-08-31T05:20:51.838Z,17.00
2017-08-31T05:23:19.434Z,16.93
2017-08-31T05:25:47.078Z,16.89
2017-08-31T05:28:14.720Z,16.80
2017-08-31T05:30:42.337Z,16.80
2017-08-31T05:33:09.951Z,16.76
2017-08-31T05:35:37.622Z,16.83
2017-08-31T05:38:05.273Z,16.72
2017-08-31T05:40:32.895Z,16.69
2017-08-31T05:43:00.565Z,16.93
2017-08-31T05:45:28.189Z,16.91
2017-08-31T05:47:55.843Z,16.86
2017-08-31T05:50:23.467Z,16.89
2017-08-31T05:52:51.165Z,16.90
2017-08-31T05:55:18.754Z,16.96
2017-08-31T05:57:46.388Z,16.88
2017-08-31T06:00:13.988Z,16.90
2017-08-31T06:02:41.654Z,16.98
2017-08-31T06:05:09.254Z,17.03
2017-08-31T06:07:36.886Z,16.99
2017-08-31T06:10:04.514Z,16.86
2017-08-31T06:12:32.155Z,16.86
2017-08-31T06:14:59.795Z,16.96
2017-08-31T06:17:27.465Z,16.94
2017-08-31T06:19:55.058Z,16.77
2017-08-31T06:22:23.122Z,16.72
2017-08-31T06:24:50.747Z,16.69
2017-08-31T06:27:18.383Z,16.61
2017-08-31T06:29:45.974Z,16.59
2017-08-31T06:32:13.654Z,16.64
2017-08-31T06:34:41.245Z,16.71
2017-08-31T06:37:08.842Z,16.80
2017-08-31T06:39:36.488Z,16.73
2017-08-31T06:42:04.080Z,16.81
2017-08-31T06:44:31.721Z,16.80
2017-08-31T06:46:59.320Z,16.87
2017-08-31T06:49:26.967Z,16.84
2017-08-31T06:51:54.567Z,16.78
2017-08-31T06:54:22.234Z,16.64
2017-08-31T06:56:49.850Z,16.61
2017-08-31T06:59:17.538Z,16.58
2017-08-31T07:01:45.130Z,16.58
2017-08-31T07:04:12.763Z,16.63
2017-08-31T07:06:40.408Z,16.59
2017-08-31T07:09:08.042Z,16.55
2017-08-31T07:11:35.670Z,16.57
2017-08-31T07:14:03.311Z,16.67
2017-08-31T07:16:30.923Z,16.56
2017-08-31T07:18:58.578Z,16.55
2017-08-31T07:21:26.214Z,16.64
2017-08-31T07:23:53.839Z,16.56
2017-08-31T07:26:21.442Z,16.57
2017-08-31T07:28:49.119Z,16.54
2017-08-31T07:31:16.725Z,16.54
2017-08-31T07:33:44.379Z,16.53
2017-08-31T07:36:11.966Z,16.54
2017-08-31T07:38:39.658Z,16.53
2017-08-31T07:41:07.284Z,16.55
2017-08-31T07:43:34.963Z,16.56
2017-08-31T07:46:02.578Z,16.60
2017-08-31T07:48:30.209Z,16.62
2017-08-31T07:50:57.840Z,16.61
2017-08-31T07:53:25.461Z,16.56
2017-08-31T07:55:53.063Z,16.58
2017-08-31T07:58:20.694Z,16.65
2017-08-31T08:00:48.310Z,16.65
2017-08-31T08:03:15.964Z,16.67
2017-08-31T08:05:43.547Z,16.71
2017-08-31T08:08:11.185Z,16.73
2017-08-31T08:10:38.891Z,16.73
2017-08-31T08:13:06.490Z,16.73
2017-08-31T08:15:34.123Z,16.75
2017-08-31T08:18:01.814Z,16.86
2017-08-31T08:20:29.414Z,16.96
2017-08-31T08:22:57.038Z,17.01
2017-08-31T08:25:24.648Z,17.05
2017-08-31T08:27:52.271Z,17.14
2017-08-31T08:30:19.859Z,17.16
2017-08-31T08:32:47.490Z,17.09
2017-08-31T08:35:15.093Z,17.14
2017-08-31T08:37:42.763Z,17.17
2017-08-31T08:40:10.371Z,17.26
2017-08-31T08:42:37.988Z,17.31
2017-08-31T08:45:05.586Z,17.35
2017-08-31T08:47:33.211Z,17.32
2017-08-31T08:50:00.830Z,17.21
2017-08-31T08:52:28.479Z,17.25
2017-08-31T08:54:56.132Z,17.28
2017-08-31T08:57:23.754Z,17.26
2017-08-31T08:59:51.353Z,17.23
2017-08-31T09:02:19.026Z,17.19
2017-08-31T09:04:46.636Z,17.18
2017-08-31T09:07:14.320Z,17.27
2017-08-31T09:09:41.911Z,17.28
2017-08-31T09:12:11.202Z,17.27
2017-08-31T09:14:38.824Z,17.31
2017-08-31T09:17:06.465Z,17.28
2017-08-31T09:19:34.203Z,17.33
2017-08-31T09:22:01.851Z,17.41
2017-08-31T09:24:29.467Z,17.40
2017-08-31T09:26:57.125Z,17.44
2017-08-31T09:29:24.719Z,17.40
2017-08-31T09:31:52.354Z,17.44
2017-08-31T09:34:19.954Z,17.46
2017-08-31T09:36:47.707Z,17.54
2017-08-31T09:39:15.314Z,17.50
2017-08-31T09:41:42.919Z,17.42
2017-08-31T09:44:10.580Z,17.42
2017-08-31T09:46:38.187Z,17.33
2017-08-31T09:49:05.810Z,17.39
2017-08-31T09:51:33.590Z,17.49
2017-08-31T09:54:01.233Z,17.53
2017-08-31T09:56:28.827Z,17.63
2017-08-31T09:58:56.482Z,17.64
2017-08-31T10:01:24.100Z,17.66
2017-08-31T10:03:51.742Z,17.61
2017-08-31T10:06:19.344Z,17.71
2017-08-31T10:08:46.974Z,17.89
2017-08-31T10:11:14.625Z,17.79
2017-08-31T10:13:42.254Z,17.76
2017-08-31T10:16:09.855Z,17.65
2017-08-31T10:18:37.509Z,17.62
2017-08-31T10:21:05.106Z,17.59
2017-08-31T10:23:32.730Z,17.61
2017-08-31T10:26:00.330Z,17.61
2017-08-31T10:28:28.019Z,17.63
2017-08-31T10:30:55.642Z,17.64
2017-08-31T10:33:23.276Z,17.61
2017-08-31T10:35:50.869Z,17.70
2017-08-31T10:38:18.547Z,17.68
2017-08-31T10:40:46.154Z,17.67
2017-08-31T10:43:13.766Z,17.65
2017-08-31T10:45:41.372Z,17.69
2017-08-31T10:48:09.004Z,17.76
2017-08-31T10:50:36.600Z,17.77
2017-08-31T10:53:04.239Z,17.88
2017-08-31T10:55:31.830Z,18.10
2017-08-31T10:57:59.455Z,18.23
2017-08-31T11:00:27.048Z,18.25
2017-08-31T11:02:54.655Z,18.34
2017-08-31T11:05:22.271Z,18.22
2017-08-31T11:07:49.898Z,18.00
2017-08-31T11:10:17.522Z,17.84
2017-08-31T11:12:45.210Z,17.63
2017-08-31T11:15:12.898Z,17.53
2017-08-31T11:17:40.551Z,17.34
2017-08-31T11:20:08.173Z,17.25
2017-08-31T11:22:35.796Z,17.20
2017-08-31T11:25:03.386Z,17.22
2017-08-31T11:27:31.090Z,17.25
2017-08-31T11:29:58.693Z,17.22
2017-08-31T11:32:26.341Z,17.20
2017-08-31T11:34:54.098Z,17.31
2017-08-31T11:37:21.937Z,17.39
2017-08-31T11:39:49.418Z,17.35
2017-08-31T11:42:17.062Z,17.38
2017-08-31T11:44:44.705Z,17.54
2017-08-31T11:47:12.349Z,17.80
2017-08-31T11:49:39.934Z,17.94
2017-08-31T11:52:07.567Z,18.15
2017-08-31T11:54:35.161Z,18.22
2017-08-31T11:57:02.787Z,18.38
2017-08-31T11:59:30.382Z,18.41
2017-08-31T12:01:58.015Z,18.35
2017-08-31T12:04:25.625Z,18.30
2017-08-31T12:06:53.238Z,18.30
2017-08-31T12:09:20.948Z,18.41
2017-08-31T12:11:48.626Z,18.55
2017-08-31T12:14:16.210Z,18.76
2017-08-31T12:16:43.824Z,18.92
2017-08-31T12:19:11.453Z,19.00
2017-08-31T12:21:39.075Z,19.05
2017-08-31T12:24:06.660Z,19.14
2017-08-31T12:26:34.239Z,19.39
2017-08-31T12:29:01.854Z,19.54
2017-08-31T12:31:29.494Z,19.52
2017-08-31T12:33:57.098Z,19.31
2017-08-31T12:36:24.726Z,19.35
2017-08-31T12:38:52.323Z,19.44
2017-08-31T12:41:19.942Z,19.56
2017-08-31T12:43:47.557Z,19.59
2017-08-31T12:46:15.170Z,19.52
2017-08-31T12:48:42.766Z,19.36
2017-08-31T12:51:10.367Z,19.22
2017-08-31T12:53:37.990Z,19.05
2017-08-31T12:56:05.602Z,18.91
2017-08-31T12:58:33.267Z,18.99
2017-08-31T13:01:00.866Z,19.20
2017-08-31T13:03:28.492Z,19.47
2017-08-31T13:05:56.175Z,19.65
2017-08-31T13:08:23.816Z,20.36
2017-08-31T13:10:51.419Z,21.06
2017-08-31T13:13:19.194Z,21.59
2017-08-31T13:15:46.785Z,21.58
2017-08-31T13:18:14.415Z,21.51
2017-08-31T13:20:42.027Z,21.58
2017-08-31T13:23:09.659Z,21.05
2017-08-31T13:25:37.246Z,20.64
2017-08-31T13:28:04.883Z,20.19
2017-08-31T13:30:32.491Z,20.12
2017-08-31T13:33:00.074Z,20.17
2017-08-31T13:35:27.791Z,20.20
2017-08-31T13:37:55.401Z,20.09
2017-08-31T13:40:23.006Z,19.94
2017-08-31T13:42:50.631Z,19.79
2017-08-31T13:45:18.232Z,19.61
2017-08-31T13:47:45.873Z,19.51
2017-08-31T13:50:13.470Z,19.47
2017-08-31T13:52:41.113Z,19.47
2017-08-31T13:55:08.736Z,19.48
2017-08-31T13:57:36.368Z,19.65
2017-08-31T14:00:04.013Z,19.68
2017-08-31T14:02:31.642Z,19.61
2017-08-31T14:04:59.235Z,19.49
2017-08-31T14:07:26.865Z,19.41
2017-08-31T14:09:54.462Z,19.45
2017-08-31T14:12:22.295Z,19.42
2017-08-31T14:14:49.874Z,19.64
2017-08-31T14:17:17.479Z,19.68
2017-08-31T14:19:45.203Z,19.95
2017-08-31T14:22:12.819Z,20.53
2017-08-31T14:24:40.455Z,20.98
2017-08-31T14:27:08.071Z,20.77
2017-08-31T14:29:35.702Z,20.50
2017-08-31T14:32:03.362Z,20.28
2017-08-31T14:34:30.986Z,20.31
2017-08-31T14:36:58.582Z,20.95
2017-08-31T14:39:26.210Z,21.61
2017-08-31T14:41:53.806Z,22.12
2017-08-31T14:44:21.450Z,22.55
2017-08-31T14:46:49.035Z,23.11
2017-08-31T14:49:16.695Z,22.90
2017-08-31T14:51:44.293Z,22.71
2017-08-31T14:54:11.928Z,22.44
2017-08-31T14:56:39.656Z,22.06
2017-08-31T14:59:07.276Z,22.21
2017-08-31T15:01:34.858Z,22.15
2017-08-31T15:04:02.491Z,21.76
2017-08-31T15:06:30.111Z,21.34
2017-08-31T15:08:57.770Z,21.07
2017-08-31T15:11:25.364Z,20.85
2017-08-31T15:13:52.982Z,20.72
2017-08-31T15:16:20.577Z,20.68
2017-08-31T15:18:48.203Z,20.61
2017-08-31T15:21:15.815Z,20.81
2017-08-31T15:23:43.443Z,21.14
2017-08-31T15:26:11.051Z,21.13
2017-08-31T15:28:38.675Z,21.05
2017-08-31T15:31:06.286Z,20.86
2017-08-31T15:33:33.914Z,20.75
2017-08-31T15:36:01.614Z,20.71
2017-08-31T15:38:29.219Z,20.68
2017-08-31T15:40:56.837Z,21.21
2017-08-31T15:43:24.438Z,21.78
2017-08-31T15:45:52.063Z,22.50
2017-08-31T15:48:19.785Z,22.76
2017-08-31T15:50:47.461Z,23.16
2017-08-31T15:53:15.060Z,23.67
2017-08-31T15:55:42.694Z,23.75
2017-08-31T15:58:10.303Z,23.89
2017-08-31T16:00:37.918Z,23.28
2017-08-31T16:03:05.520Z,22.73
2017-08-31T16:05:33.175Z,22.74
2017-08-31T16:08:00.778Z,22.92
2017-08-31T16:10:28.412Z,22.94
2017-08-31T16:12:56.015Z,22.69
2017-08-31T16:15:23.622Z,22.39
2017-08-31T16:17:51.251Z,21.98
2017-08-31T16:20:18.871Z,21.81
2017-08-31T16:22:46.487Z,22.25
2017-08-31T16:25:14.086Z,22.68
2017-08-31T16:27:41.744Z,22.42
2017-08-31T16:30:09.347Z,22.12
2017-08-31T16:32:36.967Z,22.09
2017-08-31T16:35:04.562Z,22.02
2017-08-31T16:37:32.222Z,22.05
2017-08-31T16:39:59.822Z,21.93
2017-08-31T16:42:27.451Z,21.78
2017-08-31T16:44:55.047Z,21.84
2017-08-31T16:47:22.690Z,21.92
2017-08-31T16:49:50.288Z,22.10
2017-08-31T16:52:17.907Z,22.08
2017-08-31T16:54:45.574Z,22.14
2017-08-31T16:57:13.193Z,21.89
2017-08-31T16:59:40.797Z,21.82
2017-08-31T17:02:08.443Z,21.69
2017-08-31T17:04:36.053Z,21.57
2017-08-31T17:07:03.646Z,21.43
2017-08-31T17:09:31.313Z,21.44
2017-08-31T17:11:58.927Z,21.58
2017-08-31T17:14:26.568Z,21.70
2017-08-31T17:16:54.182Z,21.75
2017-08-31T17:19:21.818Z,21.79
2017-08-31T17:21:49.555Z,21.85
2017-08-31T17:24:17.171Z,21.91
2017-08-31T17:26:44.771Z,21.94
2017-08-31T17:29:12.503Z,21.97
2017-08-31T17:31:40.089Z,21.95
2017-08-31T17:34:07.713Z,21.97
2017-08-31T17:36:35.321Z,21.97
2017-08-31T17:39:02.949Z,21.95
2017-08-31T17:41:30.553Z,21.94
2017-08-31T17:43:58.167Z,21.94
2017-08-31T17:46:25.852Z,21.96
2017-08-31T17:48:53.511Z,21.97
2017-08-31T17:51:21.222Z,21.97
2017-08-31T17:53:48.844Z,21.86
2017-08-31T17:56:16.437Z,21.77
2017-08-31T17:58:44.066Z,21.72
2017-08-31T18:01:11.680Z,21.68
2017-08-31T18:03:39.363Z,21.64
2017-08-31T18:06:06.987Z,21.61
2017-08-31T18:08:34.627Z,21.62
2017-08-31T18:11:02.238Z,21.57
2017-08-31T18:13:29.862Z,21.42
2017-08-31T18:15:57.446Z,21.31
2017-08-31T18:18:25.074Z,21.21
2017-08-31T18:20:52.663Z,21.09
2017-08-31T18:23:20.307Z,20.83
2017-08-31T18:25:47.912Z,20.60
2017-08-31T18:28:15.589Z,20.38
2017-08-31T18:30:43.203Z,20.28
2017-08-31T18:33:10.875Z,20.14
2017-08-31T18:35:38.479Z,19.94
2017-08-31T18:38:06.103Z,19.80
2017-08-31T18:40:33.724Z,19.75
2017-08-31T18:43:01.403Z,19.74
2017-08-31T18:45:28.994Z,19.79
2017-08-31T18:47:56.650Z,19.86
2017-08-31T18:50:24.261Z,19.90
2017-08-31T18:52:51.912Z,19.93
2017-08-31T18:55:19.549Z,19.92
2017-08-31T18:57:47.258Z,19.82
2017-08-31T19:00:14.905Z,19.77
2017-08-31T19:02:42.548Z,19.74
2017-08-31T19:05:10.152Z,19.78
2017-08-31T19:07:37.783Z,19.83
2017-08-31T19:10:05.375Z,19.83
2017-08-31T19:12:33.020Z,19.71
2017-08-31T19:15:00.632Z,19.67
2017-08-31T19:17:28.288Z,19.76
2017-08-31T19:19:55.883Z,19.89
2017-08-31T19:22:23.519Z,19.90
2017-08-31T19:24:51.154Z,19.94
2017-08-31T19:27:18.830Z,20.02
2017-08-31T19:29:46.449Z,19.99
2017-08-31T19:32:14.052Z,19.99
2017-08-31T19:34:41.706Z,19.90
2017-08-31T19:37:09.304Z,19.87
2017-08-31T19:39:36.949Z,19.81
2017-08-31T19:42:04.557Z,19.76
2017-08-31T19:44:32.198Z,19.72
2017-08-31T19:46:59.826Z,19.65
2017-08-31T19:49:27.501Z,19.57
2017-08-31T19:51:55.117Z,19.44
2017-08-31T19:54:22.758Z,19.43
2017-08-31T19:56:50.354Z,19.40
2017-08-31T19:59:18.003Z,19.33
2017-08-31T20:01:45.601Z,19.30
2017-08-31T20:04:13.260Z,19.32
2017-08-31T20:06:40.856Z,19.36
2017-08-31T20:09:08.516Z,19.38
2017-08-31T20:11:36.108Z,19.45
2017-08-31T20:14:03.740Z,19.51
2017-08-31T20:16:31.379Z,19.57
2017-08-31T20:18:59.020Z,19.58
2017-08-31T20:21:26.622Z,19.53
2017-08-31T20:23:54.252Z,19.45
2017-08-31T20:26:21.867Z,19.42
2017-08-31T20:28:49.507Z,19.41
2017-08-31T20:31:17.113Z,19.35
2017-08-31T20:33:44.823Z,19.31
2017-08-31T20:36:12.415Z,19.32
2017-08-31T20:38:40.043Z,19.33
2017-08-31T20:41:07.666Z,19.12
2017-08-31T20:43:35.355Z,19.08
2017-08-31T20:46:02.971Z,19.11
2017-08-31T20:48:30.615Z,19.05
2017-08-31T20:50:58.217Z,18.89
2017-08-31T20:53:25.891Z,18.97
2017-08-31T20:55:53.500Z,19.11
2017-08-31T20:58:21.142Z,19.21
2017-08-31T21:00:48.750Z,19.16
2017-08-31T21:03:16.382Z,19.06
2017-08-31T21:05:43.991Z,19.02
2017-08-31T21:08:11.638Z,18.96
2017-08-31T21:10:39.239Z,18.90
2017-08-31T21:13:06.875Z,18.80
2017-08-31T21:15:34.503Z,18.74
2017-08-31T21:18:02.163Z,18.69
2017-08-31T21:20:29.783Z,18.65
2017-08-31T21:22:57.443Z,18.66
2017-08-31T21:25:25.026Z,18.72
2017-08-31T21:27:52.620Z,18.78
2017-08-31T21:30:20.255Z,18.71
2017-08-31T21:32:47.863Z,18.58
2017-08-31T21:35:15.498Z,18.55
2017-08-31T21:37:43.109Z,18.47
2017-08-31T21:40:10.754Z,18.48
2017-08-31T21:42:38.398Z,18.44
2017-08-31T21:45:06.046Z,18.34
2017-08-31T21:47:33.647Z,18.29
2017-08-31T21:50:01.275Z,18.31
2017-08-31T21:52:28.855Z,18.32
2017-08-31T21:54:56.588Z,18.36
2017-08-31T21:57:24.178Z,18.34
2017-08-31T21:59:51.813Z,18.28
2017-08-31T22:02:19.410Z,18.33
2017-08-31T22:04:47.037Z,18.40
2017-08-31T22:07:14.636Z,18.40
2017-08-31T22:09:42.294Z,18.38
2017-08-31T22:12:09.884Z,18.18
2017-08-31T22:14:37.546Z,18.08
2017-08-31T22:17:05.138Z,17.91
2017-08-31T22:19:32.776Z,17.66
2017-08-31T22:22:00.387Z,17.32
2017-08-31T22:24:28.027Z,17.20
2017-08-31T22:26:55.628Z,17.19
2017-08-31T22:29:23.259Z,17.24
2017-08-31T22:31:50.861Z,17.21
2017-08-31T22:34:18.494Z,17.18
2017-08-31T22:36:46.106Z,17.17
2017-08-31T22:39:13.787Z,17.14
2017-08-31T22:41:41.379Z,17.08
2017-08-31T22:44:09.111Z,17.00
2017-08-31T22:46:36.706Z,16.98
2017-08-31T22:49:04.542Z,16.95
2017-08-31T22:51:32.154Z,16.96
2017-08-31T22:53:59.770Z,16.96
2017-08-31T22:56:27.347Z,16.94
2017-08-31T22:58:54.976Z,16.92
2017-08-31T23:01:22.575Z,16.89
2017-08-31T23:03:50.189Z,16.86
2017-08-31T23:06:17.786Z,16.90
2017-08-31T23:08:45.399Z,16.92
2017-08-31T23:11:12.993Z,16.94
2017-08-31T23:13:40.590Z,16.91
2017-08-31T23:16:08.250Z,16.92
2017-08-31T23:18:35.847Z,16.94
2017-08-31T23:21:03.623Z,16.97
2017-08-31T23:23:31.226Z,16.95
2017-08-31T23:25:58.845Z,16.89
2017-08-31T23:28:26.442Z,16.85
2017-08-31T23:30:54.067Z,16.84
2017-08-31T23:33:21.714Z,16.80
2017-08-31T23:35:49.338Z,16.81
2017-08-31T23:38:16.930Z,16.74
2017-08-31T23:40:44.566Z,16.76
2017-08-31T23:43:12.182Z,16.78
2017-08-31T23:45:39.774Z,16.80
2017-08-31T23:48:07.410Z,16.81
2017-08-31T23:50:35.010Z,16.84
2017-08-31T23:53:02.647Z,16.76
2017-08-31T23:55:30.295Z,16.62
2017-08-31T23:57:57.950Z,16.69
